Time;durP1;ratioP1;P1;durP2;ratioP2;P2;SDS_P1;SDS_P2;PMS_P1;PMS_P2;Temp;Humidity;BMP_temperature;BMP_pressure;BME280_temperature;BME280_humidity;BME280_pressure;Samples;Min_cycle;Max_cycle;Signal;HPM_P1;HPM_P2
2022/02/07 00:00:39;;;;;;;0.82;0.40;;;;;;;3.61;100.00;96588.31;10405418;28;20128;-63
2022/02/07 00:05:44;;;;;;;;;;;;;;;3.63;100.00;96604.97;10407566;28;20139;-59
2022/02/07 00:10:48;;;;;;;0.70;0.30;;;;;;;3.62;100.00;96587.34;10404598;28;19966;-61
2022/02/07 00:15:52;;;;;;;0.82;0.47;;;;;;;3.57;100.00;96595.00;10404291;28;20038;-61
2022/02/07 00:20:55;;;;;;;0.73;0.40;;;;;;;3.59;100.00;96582.31;10405470;28;20124;-61
2022/02/07 00:26:00;;;;;;;0.73;0.30;;;;;;;3.39;100.00;96603.09;10401129;28;20037;-61
2022/02/07 00:31:03;;;;;;;0.95;0.50;;;;;;;3.38;100.00;96652.00;10403560;28;20132;-63
2022/02/07 00:36:06;;;;;;;2.20;0.43;;;;;;;3.30;100.00;96636.81;10402158;28;20505;-66
2022/02/07 00:41:18;;;;;;;0.75;0.40;;;;;;;3.21;100.00;96643.91;10405171;28;20041;-63
2022/02/07 00:46:24;;;;;;;;;;;;;;;3.13;100.00;96653.69;10407305;28;20468;-59
2022/02/07 00:51:27;;;;;;;0.82;0.40;;;;;;;3.11;100.00;96663.66;10402284;28;20011;-62
2022/02/07 00:56:32;;;;;;;1.73;0.50;;;;;;;2.97;100.00;96676.56;10403871;28;20045;-62
2022/02/07 01:01:35;;;;;;;2.05;0.60;;;;;;;2.88;100.00;96706.75;10401220;28;20136;-63
2022/02/07 01:06:38;;;;;;;2.67;0.52;;;;;;;2.79;100.00;96713.84;10401278;28;20053;-64
2022/02/07 01:12:07;;;;;;;1.73;0.47;;;;;;;2.70;100.00;96747.50;10400729;28;20127;-64
2022/02/07 01:18:22;;;;;;;2.22;0.68;;;;;;;2.65;100.00;96744.44;10401821;28;20061;-64
2022/02/07 01:23:30;;;;;;;2.40;0.60;;;;;;;2.55;100.00;96756.97;10400000;28;20037;-64
2022/02/07 01:50:41;;;;;;;1.67;0.70;;;;;;;2.23;100.00;96835.38;10437091;28;20104;-63
2022/02/07 01:55:51;;;;;;;3.85;1.13;;;;;;;2.20;100.00;96843.66;10400165;28;20524;-64
2022/02/07 02:00:56;;;;;;;2.45;0.57;;;;;;;2.21;100.00;96858.59;10400625;28;20061;-64
2022/02/07 02:06:03;;;;;;;2.33;0.70;;;;;;;2.19;100.00;96908.38;10396328;28;20061;-62
2022/02/07 02:11:13;;;;;;;3.75;0.73;;;;;;;1.30;100.00;96969.59;10398948;28;20049;-63
2022/02/07 02:16:24;;;;;;;2.83;0.50;;;;;;;1.02;100.00;96968.59;10399668;28;20040;-64
2022/02/07 02:37:42;;;;;;;0.52;0.20;;;;;;;0.66;100.00;97016.78;10395320;28;20317;-64
2022/02/07 02:48:16;;;;;;;1.38;0.45;;;;;;;0.69;100.00;97047.47;10397754;28;20049;-62
2022/02/07 02:53:20;;;;;;;2.63;0.40;;;;;;;0.63;100.00;97059.47;10395888;28;20072;-63
2022/02/07 02:58:28;;;;;;;0.77;0.45;;;;;;;0.57;100.00;97068.78;10392501;28;20449;-64
2022/02/07 03:03:35;;;;;;;1.42;0.40;;;;;;;0.57;100.00;97087.31;10391652;28;20405;-62
2022/02/07 03:08:39;;;;;;;2.92;0.60;;;;;;;0.61;100.00;97094.06;10397353;28;20056;-63
2022/02/07 03:13:51;;;;;;;3.33;0.70;;;;;;;0.60;100.00;97102.13;10396444;28;20049;-63
2022/02/07 03:19:14;;;;;;;2.45;0.50;;;;;;;0.62;100.00;97134.63;10398759;28;20510;-63
2022/02/07 03:24:19;;;;;;;4.18;0.85;;;;;;;0.67;100.00;97160.75;10395454;28;20112;-62
2022/02/07 03:29:50;;;;;;;3.47;0.73;;;;;;;0.68;100.00;97194.22;10401536;28;20420;-64
2022/02/07 03:34:57;;;;;;;2.15;0.55;;;;;;;0.69;100.00;97243.63;10403777;28;20421;-61
2022/02/07 03:40:01;;;;;;;1.63;0.60;;;;;;;0.68;100.00;97237.50;10403626;28;20136;-63
2022/02/07 03:45:07;;;;;;;2.80;0.70;;;;;;;0.70;100.00;97245.31;10404678;28;20042;-63
2022/02/07 03:50:15;;;;;;;3.50;0.75;;;;;;;0.77;100.00;97283.59;10404017;28;20432;-63
2022/02/07 03:55:24;;;;;;;2.78;0.63;;;;;;;0.82;100.00;97265.50;10402860;28;20059;-62
2022/02/07 04:00:34;;;;;;;3.75;0.70;;;;;;;0.87;100.00;97302.22;10404586;28;20179;-64
2022/02/07 04:05:56;;;;;;;3.17;0.60;;;;;;;0.87;100.00;97303.09;10401737;28;20053;-63
2022/02/07 04:11:02;;;;;;;4.45;0.60;;;;;;;0.90;100.00;97317.88;10399702;28;20056;-63
2022/02/07 04:16:09;;;;;;;2.08;0.60;;;;;;;0.94;100.00;97342.34;10401915;28;20037;-64
2022/02/07 04:21:17;;;;;;;1.25;0.50;;;;;;;1.01;100.00;97332.88;10403438;28;20151;-61
2022/02/07 04:26:20;;;;;;;3.40;0.80;;;;;;;1.11;100.00;97339.13;10403518;28;20088;-64
2022/02/07 04:31:25;;;;;;;5.32;1.08;;;;;;;1.14;100.00;97346.81;10405649;28;20053;-63
2022/02/07 04:36:29;;;;;;;3.58;0.70;;;;;;;1.18;100.00;97352.69;10400022;28;20044;-64
2022/02/07 04:41:33;;;;;;;3.60;0.77;;;;;;;1.16;100.00;97363.44;10400496;28;20042;-64
2022/02/07 04:46:51;;;;;;;2.97;0.80;;;;;;;1.12;100.00;97388.53;10398143;28;20049;-64
2022/02/07 04:52:01;;;;;;;3.95;0.80;;;;;;;1.16;100.00;97389.97;10403658;28;20049;-63
2022/02/07 04:57:13;;;;;;;4.07;0.88;;;;;;;1.17;100.00;97406.75;10403763;28;20052;-62
2022/02/07 05:02:28;;;;;;;3.30;1.00;;;;;;;1.18;100.00;97419.88;10400630;28;20072;-64
2022/02/07 05:18:18;;;;;;;3.33;0.70;;;;;;;1.22;100.00;97447.00;10399280;28;20513;-63
2022/02/07 05:23:43;;;;;;;1.95;0.47;;;;;;;1.21;100.00;97464.72;10396205;28;20512;-63
2022/02/07 05:29:25;;;;;;;3.10;0.80;;;;;;;1.26;100.00;97474.09;10355180;28;20104;-61
2022/02/07 05:34:38;;;;;;;5.32;1.27;;;;;;;1.30;100.00;97499.44;10387122;28;20104;-62
2022/02/07 05:40:06;;;;;;;2.00;0.70;;;;;;;1.24;100.00;97503.44;10400951;28;20421;-62
2022/02/07 05:45:47;;;;;;;3.42;0.80;;;;;;;1.23;100.00;97521.13;10397244;28;20466;-62
2022/02/07 05:51:26;;;;;;;1.77;0.50;;;;;;;1.30;100.00;97550.66;10392117;28;20057;-61
2022/02/07 05:56:48;;;;;;;2.97;0.60;;;;;;;1.28;100.00;97551.78;10400573;28;20216;-62
2022/02/07 06:02:10;;;;;;;3.17;0.70;;;;;;;1.31;100.00;97562.97;10398662;28;20104;-62
2022/02/07 06:07:15;;;;;;;5.55;0.85;;;;;;;1.34;100.00;97599.06;10400526;28;20513;-62
2022/02/07 06:12:18;;;;;;;3.90;0.90;;;;;;;1.34;100.00;97620.28;10398217;28;20073;-61
2022/02/07 06:17:22;;;;;;;3.85;0.90;;;;;;;1.34;100.00;97621.13;10399481;28;20075;-62
2022/02/07 06:22:27;;;;;;;7.35;1.17;;;;;;;1.31;100.00;97639.94;10393921;28;20045;-62
2022/02/07 06:27:30;;;;;;;5.30;1.10;;;;;;;1.31;100.00;97647.91;10397872;28;20564;-62
2022/02/07 06:32:36;;;;;;;6.72;0.88;;;;;;;1.41;100.00;97666.59;10396733;28;20307;-61
2022/02/07 06:37:41;;;;;;;5.22;1.00;;;;;;;1.49;100.00;97661.50;10395115;28;20118;-61
2022/02/07 06:42:45;;;;;;;5.38;1.17;;;;;;;1.54;100.00;97682.38;10397597;28;20038;-64
2022/02/07 06:47:49;;;;;;;3.25;0.93;;;;;;;1.52;100.00;97681.69;10396032;28;20041;-65
2022/02/07 06:52:54;;;;;;;5.65;1.20;;;;;;;1.57;100.00;97695.41;10398492;28;20101;-63
2022/02/07 06:57:57;;;;;;;4.35;0.80;;;;;;;1.62;100.00;97705.66;10398866;28;20054;-63
2022/02/07 07:03:03;;;;;;;3.58;0.80;;;;;;;1.56;100.00;97706.16;10397393;28;20150;-63
2022/02/07 07:08:09;;;;;;;4.93;1.17;;;;;;;1.51;100.00;97712.66;10394907;28;20515;-63
2022/02/07 07:13:16;;;;;;;5.05;1.00;;;;;;;1.38;100.00;97728.72;10394643;28;20049;-64
2022/02/07 07:18:20;;;;;;;5.82;1.23;;;;;;;1.36;100.00;97741.28;10399163;28;20073;-60
2022/02/07 07:23:26;;;;;;;6.65;1.08;;;;;;;1.47;100.00;97753.69;10395319;28;20081;-61
2022/02/07 07:28:34;;;;;;;7.00;1.30;;;;;;;1.42;100.00;97782.41;10392917;28;20056;-60
2022/02/07 07:33:38;;;;;;;5.25;1.20;;;;;;;1.44;100.00;97800.88;10397706;28;20054;-62
2022/02/07 07:38:43;;;;;;;5.88;1.23;;;;;;;1.46;100.00;97818.38;10399555;28;20056;-62
2022/02/07 07:43:49;;;;;;;3.08;1.27;;;;;;;1.49;100.00;97857.94;10397640;28;20346;-63
2022/02/07 07:49:10;;;;;;;6.28;1.50;;;;;;;1.49;100.00;97884.47;10399658;28;20056;-62
2022/02/07 07:54:27;;;;;;;7.90;1.30;;;;;;;1.51;100.00;97887.88;10405082;23;20066;-61
2022/02/07 08:05:06;;;;;;;4.38;1.30;;;;;;;1.59;100.00;97926.28;10335939;28;20046;-61
2022/02/07 08:15:33;;;;;;;7.00;1.33;;;;;;;1.69;100.00;97943.19;10339069;28;20046;-62
2022/02/07 08:20:36;;;;;;;6.05;1.38;;;;;;;1.77;100.00;97951.41;10358132;28;20433;-58
2022/02/07 08:25:41;;;;;;;5.78;1.48;;;;;;;1.82;100.00;97964.34;10359308;28;20049;-59
2022/02/07 08:30:44;;;;;;;5.53;1.33;;;;;;;2.06;100.00;97979.38;10340317;28;20123;-58
2022/02/07 08:35:47;;;;;;;4.93;1.10;;;;;;;2.17;100.00;97978.53;10342585;28;20045;-59
2022/02/07 08:40:51;;;;;;;2.67;1.00;;;;;;;2.21;100.00;98044.63;10359770;28;20506;-59
2022/02/07 08:45:55;;;;;;;6.25;1.30;;;;;;;2.29;100.00;98036.06;10358907;28;20133;-60
2022/02/07 08:50:57;;;;;;;6.97;1.30;;;;;;;2.29;100.00;98022.78;10342095;28;20144;-59
2022/02/07 08:56:03;;;;;;;4.65;1.00;;;;;;;2.40;100.00;98032.56;10317322;28;20065;-61
2022/02/07 09:01:14;;;;;;;5.80;1.55;;;;;;;2.49;100.00;98031.00;10316840;28;20068;-61
2022/02/07 09:06:30;;;;;;;4.60;1.00;;;;;;;2.49;100.00;98038.97;10316979;28;20125;-60
2022/02/07 09:11:35;;;;;;;4.88;1.05;;;;;;;2.53;100.00;98059.06;10320030;28;20045;-60
2022/02/07 09:16:39;;;;;;;2.85;0.80;;;;;;;2.57;100.00;98063.16;10317880;28;20046;-58
2022/02/07 09:21:43;;;;;;;2.70;0.90;;;;;;;2.54;100.00;98089.97;10314759;28;20034;-60
2022/02/07 09:26:49;;;;;;;8.18;1.30;;;;;;;2.40;100.00;98102.56;10318212;28;20047;-60
2022/02/07 09:31:52;;;;;;;6.07;1.10;;;;;;;2.30;100.00;98106.84;10319264;28;20077;-59
2022/02/07 09:36:56;;;;;;;9.18;1.20;;;;;;;2.20;100.00;98125.31;10316445;28;20042;-61
2022/02/07 09:42:03;;;;;;;6.38;1.33;;;;;;;2.12;100.00;98128.56;10319354;28;20050;-60
2022/02/07 09:47:07;;;;;;;6.45;1.42;;;;;;;2.08;100.00;98150.16;10319223;28;20052;-61
2022/02/07 09:52:10;;;;;;;5.82;1.35;;;;;;;2.14;100.00;98194.88;10315579;28;20046;-62
2022/02/07 09:57:18;;;;;;;7.13;1.25;;;;;;;2.21;100.00;98160.72;10317392;28;20052;-61
2022/02/07 10:02:30;;;;;;;9.00;1.80;;;;;;;2.38;100.00;98194.88;10319923;28;20053;-62
2022/02/07 10:07:40;;;;;;;7.97;1.23;;;;;;;2.37;100.00;98209.13;10324179;28;20046;-62
2022/02/07 10:13:07;;;;;;;4.88;1.15;;;;;;;2.43;100.00;98219.28;10315306;28;20050;-60
2022/02/07 10:18:17;;;;;;;6.15;1.10;;;;;;;2.46;100.00;98228.88;10316049;28;20418;-62
2022/02/07 10:39:33;;;;;;;3.63;0.90;;;;;;;2.74;100.00;98267.53;10313979;28;20057;-61
2022/02/07 10:44:43;;;;;;;5.60;1.30;;;;;;;2.74;100.00;98279.97;10314417;28;20502;-61
2022/02/07 10:49:59;;;;;;;5.03;1.30;;;;;;;2.81;100.00;98280.34;10314357;28;20064;-61
2022/02/07 10:55:02;;;;;;;5.72;1.20;;;;;;;3.26;100.00;98301.75;10332856;28;20470;-60
2022/02/07 11:00:10;;;;;;;4.50;1.10;;;;;;;3.49;100.00;98312.44;10356804;28;20192;-61
2022/02/07 11:05:16;;;;;;;5.20;1.25;;;;;;;3.41;100.00;98329.03;10353366;28;20045;-61
2022/02/07 11:10:29;;;;;;;9.00;1.35;;;;;;;3.36;100.00;98348.03;10354559;28;20041;-61
2022/02/07 11:15:38;;;;;;;7.38;1.20;;;;;;;3.35;100.00;98359.63;10355424;28;20042;-60
2022/02/07 11:21:01;;;;;;;7.03;1.80;;;;;;;3.40;100.00;98354.00;10354597;28;20042;-61
2022/02/07 11:26:33;;;;;;;8.43;1.77;;;;;;;3.46;100.00;98350.00;10353666;28;20042;-61
2022/02/07 11:31:42;;;;;;;8.30;1.77;;;;;;;3.41;100.00;98346.84;10337537;28;20493;-60
2022/02/07 11:36:45;;;;;;;8.98;1.75;;;;;;;3.34;100.00;98357.09;10354351;28;20581;-61
2022/02/07 11:42:12;;;;;;;10.60;1.77;;;;;;;3.13;100.00;98351.59;10354246;28;20056;-61
2022/02/07 11:47:22;;;;;;;13.93;1.90;;;;;;;3.08;100.00;98362.56;10355786;28;20049;-61
2022/02/07 11:52:30;;;;;;;14.02;2.47;;;;;;;3.05;100.00;98363.66;10358709;28;20045;-62
2022/02/07 11:57:37;;;;;;;5.10;1.27;;;;;;;1.66;100.00;98455.94;10363090;28;20053;-60
2022/02/07 12:02:48;;;;;;;15.20;2.30;;;;;;;1.05;100.00;98472.34;10357861;28;20132;-60
2022/02/07 12:08:03;;;;;;;14.30;2.20;;;;;;;0.60;100.00;98505.22;10345959;28;20052;-62
2022/02/07 12:13:31;;;;;;;21.75;2.80;;;;;;;0.60;100.00;98496.41;10361453;28;20054;-62
2022/02/07 12:18:35;;;;;;;14.27;2.40;;;;;;;0.76;100.00;98483.03;10360440;28;20049;-61
2022/02/07 12:23:38;;;;;;;13.15;2.20;;;;;;;0.76;100.00;98491.84;10343072;28;20049;-61
2022/02/07 12:28:46;;;;;;;14.50;2.15;;;;;;;0.79;100.00;98496.09;10358711;28;20040;-62
2022/02/07 12:33:57;;;;;;;8.70;1.85;;;;;;;0.86;100.00;98504.50;10358970;28;20044;-62
2022/02/07 12:39:05;;;;;;;12.60;2.05;;;;;;;1.07;100.00;98515.56;10360188;28;20038;-62
2022/02/07 12:44:22;;;;;;;10.77;2.00;;;;;;;1.30;100.00;98518.50;10356986;28;20053;-62
2022/02/07 12:49:28;;;;;;;12.20;1.90;;;;;;;1.54;100.00;98510.72;10357039;28;20098;-62
2022/02/07 12:54:37;;;;;;;13.50;2.50;;;;;;;1.92;100.00;98496.66;10360193;28;20395;-62
2022/02/07 12:59:51;;;;;;;16.63;2.58;;;;;;;2.15;100.00;98513.72;10338246;28;20054;-64
2022/02/07 13:04:55;;;;;;;14.23;2.47;;;;;;;2.40;100.00;98516.47;10357378;28;20497;-64
2022/02/07 13:09:59;;;;;;;17.95;2.70;;;;;;;2.65;100.00;98523.56;10358428;28;20578;-64
2022/02/07 13:15:52;;;;;;;19.30;3.10;;;;;;;2.73;100.00;98523.00;10357588;28;20045;-65
2022/02/07 13:20:57;;;;;;;15.25;2.70;;;;;;;2.76;100.00;98528.97;10353932;28;20064;-64
2022/02/07 13:26:04;;;;;;;15.85;2.67;;;;;;;2.81;100.00;98536.66;10342278;28;20050;-64
2022/02/07 13:31:08;;;;;;;11.05;2.20;;;;;;;3.21;100.00;98532.91;10358033;28;20125;-65
2022/02/07 13:36:12;;;;;;;9.73;2.15;;;;;;;3.44;100.00;98527.72;10355185;28;20050;-64
2022/02/07 13:41:21;;;;;;;11.52;2.20;;;;;;;3.53;100.00;98557.16;10359337;28;20041;-64
2022/02/07 13:46:28;;;;;;;13.63;2.35;;;;;;;3.48;100.00;98550.47;10353131;28;20042;-64
2022/02/07 13:51:33;;;;;;;12.30;2.20;;;;;;;3.73;100.00;98569.97;10354592;28;20049;-64
2022/02/07 13:56:36;;;;;;;8.73;2.35;;;;;;;3.76;100.00;98580.41;10356759;28;20046;-61
2022/02/07 14:01:40;;;;;;;12.85;2.33;;;;;;;3.85;100.00;98574.38;10358341;28;20054;-60
2022/02/07 14:07:03;;;;;;;10.77;2.60;;;;;;;3.80;100.00;98564.06;10356493;28;20045;-61
2022/02/07 14:12:08;;;;;;;12.75;2.40;;;;;;;3.97;100.00;98578.78;10355074;28;20719;-63
2022/02/07 14:17:11;;;;;;;12.70;2.85;;;;;;;4.27;100.00;98588.13;10337314;28;20128;-62
2022/02/07 14:22:17;;;;;;;7.82;1.70;;;;;;;4.40;100.00;98605.84;10357283;28;20056;-62
2022/02/07 14:27:21;;;;;;;5.78;1.50;;;;;;;4.19;100.00;98601.16;10350927;28;20069;-62
2022/02/07 14:32:24;;;;;;;9.00;1.50;;;;;;;3.96;100.00;98608.25;10352880;28;20050;-60
2022/02/07 14:37:30;;;;;;;3.70;1.05;;;;;;;3.83;100.00;98630.47;10356051;28;21212;-62
2022/02/07 14:42:35;;;;;;;4.75;0.90;;;;;;;3.72;100.00;98649.06;10352610;28;20041;-58
2022/02/07 14:47:50;;;;;;;6.05;1.50;;;;;;;3.65;100.00;98642.47;10337492;28;20394;-62
2022/02/07 14:52:56;;;;;;;4.80;1.50;;;;;;;3.69;100.00;98651.97;10353153;28;20061;-62
2022/02/07 14:57:59;;;;;;;6.55;1.50;;;;;;;3.75;100.00;98670.19;10308648;28;20174;-61
2022/02/07 15:03:05;;;;;;;11.65;1.98;;;;;;;3.70;100.00;98678.47;10309174;28;20413;-61
2022/02/07 15:08:09;;;;;;;10.95;2.00;;;;;;;3.70;100.00;98686.47;10313606;28;20129;-61
2022/02/07 15:13:12;;;;;;;9.68;2.03;;;;;;;3.68;100.00;98724.84;10314748;28;20565;-63
2022/02/07 15:18:17;;;;;;;8.10;2.00;;;;;;;3.63;100.00;98719.88;10316440;28;20121;-61
2022/02/07 15:23:22;;;;;;;7.05;2.00;;;;;;;3.42;100.00;98742.72;10308876;28;20409;-63
2022/02/07 15:28:25;;;;;;;10.57;1.85;;;;;;;2.95;100.00;98758.34;10321102;28;20046;-63
2022/02/07 15:33:34;;;;;;;10.55;1.85;;;;;;;2.49;100.00;98764.97;10320591;28;20056;-62
2022/02/07 15:38:40;;;;;;;9.90;2.15;;;;;;;2.28;100.00;98794.66;10321296;28;20414;-63
2022/02/07 15:43:43;;;;;;;7.38;1.70;;;;;;;2.08;100.00;98826.03;10319239;28;20045;-61
2022/02/07 15:48:46;;;;;;;9.48;1.58;;;;;;;1.77;100.00;98837.72;10322978;28;20038;-62
2022/02/07 15:53:52;;;;;;;5.13;1.50;;;;;;;1.57;100.00;98837.16;10328483;28;20133;-62
2022/02/07 15:58:55;;;;;;;5.28;1.35;;;;;;;1.36;100.00;98847.28;10358390;28;20049;-61
2022/02/07 16:03:58;;;;;;;6.63;1.50;;;;;;;1.36;100.00;98858.75;10359955;28;20050;-61
2022/02/07 16:09:03;;;;;;;7.43;1.40;;;;;;;1.35;100.00;98849.09;10359328;28;20060;-62
2022/02/07 16:14:09;;;;;;;6.00;1.23;;;;;;;1.35;100.00;98859.69;10361877;28;20092;-62
2022/02/07 16:19:12;;;;;;;7.20;1.15;;;;;;;1.34;100.00;98881.03;10361436;28;20073;-62
2022/02/07 16:24:20;;;;;;;8.43;1.50;;;;;;;1.40;100.00;98898.41;10358390;28;20054;-62
2022/02/07 16:29:24;;;;;;;7.45;1.30;;;;;;;1.44;100.00;98922.03;10360497;28;20810;-60
2022/02/07 16:34:28;;;;;;;6.28;1.58;;;;;;;1.53;100.00;98907.31;10352541;28;20418;-62
2022/02/07 16:39:34;;;;;;;8.15;1.27;;;;;;;1.58;100.00;98918.53;10359001;28;21622;-62
2022/02/07 16:44:37;;;;;;;8.30;1.55;;;;;;;1.62;100.00;98941.31;10356901;28;20148;-62
2022/02/07 16:49:41;;;;;;;8.65;1.30;;;;;;;1.72;100.00;98954.03;10360811;28;20046;-62
2022/02/07 16:54:46;;;;;;;5.85;1.50;;;;;;;1.64;100.00;98927.94;10354547;28;20054;-61
2022/02/07 16:59:51;;;;;;;6.35;1.40;;;;;;;1.50;100.00;98961.47;10340598;28;20052;-60
2022/02/07 17:04:55;;;;;;;6.82;1.55;;;;;;;1.50;100.00;98947.34;10354324;28;20042;-60
2022/02/07 17:10:01;;;;;;;2.95;1.05;;;;;;;1.45;100.00;98954.72;10341406;28;20521;-65
2022/02/07 17:15:05;;;;;;;4.75;1.20;;;;;;;1.43;100.00;98954.84;10359447;28;20383;-61
2022/02/07 17:20:09;;;;;;;3.65;1.02;;;;;;;1.41;100.00;98963.84;10341936;28;20053;-61
2022/02/07 17:25:15;;;;;;;5.03;1.20;;;;;;;1.38;100.00;98979.00;10358148;28;20167;-61
2022/02/07 17:30:18;;;;;;;4.82;1.30;;;;;;;1.36;100.00;98994.16;10339647;28;20151;-60
2022/02/07 17:35:21;;;;;;;7.68;1.60;;;;;;;1.39;100.00;98987.81;10357990;28;20072;-55
2022/02/07 17:40:26;;;;;;;7.10;1.60;;;;;;;1.36;100.00;99025.16;10354853;28;20038;-59
2022/02/07 17:45:35;;;;;;;6.82;1.33;;;;;;;1.28;100.00;99011.47;10354002;28;20478;-60
2022/02/07 17:50:40;;;;;;;10.43;1.75;;;;;;;1.25;100.00;99007.19;10357518;28;20038;-58
2022/02/07 17:55:45;;;;;;;10.95;1.45;;;;;;;1.25;100.00;99012.50;10357099;28;20077;-60
2022/02/07 18:00:51;;;;;;;9.73;1.55;;;;;;;1.28;100.00;99016.78;10358207;28;20212;-56
2022/02/07 18:05:57;;;;;;;9.85;1.83;;;;;;;1.30;100.00;99017.53;10356843;28;20042;-55
2022/02/07 18:11:02;;;;;;;9.40;1.80;;;;;;;1.36;100.00;99025.16;10355960;28;20050;-61
2022/02/07 18:16:06;;;;;;;10.43;2.00;;;;;;;1.38;100.00;99033.88;10355117;28;20108;-62
2022/02/07 18:21:09;;;;;;;8.48;1.70;;;;;;;1.42;100.00;99035.44;10358752;28;20092;-61
2022/02/07 18:26:16;;;;;;;9.75;1.90;;;;;;;1.42;100.00;99058.44;10360447;28;20108;-61
2022/02/07 18:31:19;;;;;;;8.48;1.67;;;;;;;1.46;100.00;99070.63;10355461;28;20044;-60
2022/02/07 18:36:28;;;;;;;9.43;1.65;;;;;;;1.49;100.00;99086.38;10355444;28;20046;-60
2022/02/07 18:41:44;;;;;;;12.55;2.00;;;;;;;1.52;100.00;99088.88;10350491;28;20049;-59
2022/02/07 18:46:48;;;;;;;9.13;1.90;;;;;;;1.34;100.00;99083.66;10353240;28;20034;-58
2022/02/07 18:51:51;;;;;;;9.05;1.85;;;;;;;1.28;100.00;99085.78;10353703;28;20049;-54
2022/02/07 18:56:57;;;;;;;14.10;2.22;;;;;;;1.25;100.00;99083.28;10355235;28;20475;-58
2022/02/07 19:02:05;;;;;;;11.73;2.20;;;;;;;1.17;100.00;99097.03;10353522;28;20069;-57
2022/02/07 19:07:09;;;;;;;15.75;2.70;;;;;;;1.03;100.00;99089.81;10354165;28;20050;-60
2022/02/07 19:12:13;;;;;;;14.05;2.60;;;;;;;0.97;100.00;99096.31;10351814;28;20046;-58
2022/02/07 19:17:19;;;;;;;14.60;3.20;;;;;;;0.90;100.00;99100.25;10351381;28;20121;-58
2022/02/07 19:22:25;;;;;;;14.45;2.72;;;;;;;0.80;100.00;99107.00;10353017;28;20125;-57
2022/02/07 19:27:34;;;;;;;13.35;2.53;;;;;;;0.74;100.00;99113.47;10352370;28;20038;-58
2022/02/07 19:32:43;;;;;;;14.05;2.70;;;;;;;0.79;100.00;99113.22;10336623;28;20056;-58
2022/02/07 19:37:46;;;;;;;16.58;2.70;;;;;;;0.81;100.00;99125.47;10353487;28;20054;-63
2022/02/07 19:42:54;;;;;;;16.77;2.72;;;;;;;0.81;100.00;99124.63;10353923;28;20045;-61
2022/02/07 19:47:57;;;;;;;18.45;2.70;;;;;;;0.84;100.00;99122.66;10352271;28;20506;-60
2022/02/07 19:53:05;;;;;;;13.77;2.47;;;;;;;0.87;100.00;99122.50;10351783;28;20057;-63
2022/02/07 19:58:12;;;;;;;15.82;2.60;;;;;;;0.94;100.00;99124.81;10364500;23;20394;-61
2022/02/07 20:03:19;;;;;;;15.57;2.60;;;;;;;1.00;100.00;99135.94;10356720;28;20046;-61
2022/02/07 20:08:26;;;;;;;14.88;2.50;;;;;;;1.12;100.00;99136.22;10357491;28;20138;-62
2022/02/07 20:13:33;;;;;;;16.05;2.90;;;;;;;1.11;100.00;99138.03;10345567;28;20100;-61
2022/02/07 20:18:38;;;;;;;18.73;3.00;;;;;;;1.09;100.00;99139.91;10364587;28;20120;-60
2022/02/07 20:23:42;;;;;;;20.20;2.75;;;;;;;1.07;100.00;99152.41;10364517;28;20042;-61
2022/02/07 20:28:46;;;;;;;9.48;2.47;;;;;;;1.07;100.00;99145.28;10366390;28;20049;-60
2022/02/07 20:33:52;;;;;;;13.27;2.65;;;;;;;1.23;100.00;99141.78;10364220;28;20120;-60
2022/02/07 20:38:55;;;;;;;14.48;2.70;;;;;;;1.32;100.00;99137.78;10366650;28;20433;-60
2022/02/07 20:44:00;;;;;;;15.15;2.97;;;;;;;1.41;100.00;99139.06;10361053;28;20072;-60
2022/02/07 20:49:09;;;;;;;15.75;2.65;;;;;;;1.49;100.00;99153.63;10363329;28;20046;-62
2022/02/07 20:54:12;;;;;;;15.35;2.63;;;;;;;1.52;100.00;99157.91;10394732;28;20082;-61
2022/02/07 20:59:43;;;;;;;12.20;2.60;;;;;;;1.63;100.00;99160.84;10419568;28;20100;-63
2022/02/07 21:04:50;;;;;;;14.75;2.65;;;;;;;1.68;100.00;99163.22;10396563;28;20042;-63
2022/02/07 21:09:57;;;;;;;11.20;2.85;;;;;;;1.74;100.00;99177.97;10361274;28;20085;-63
2022/02/07 21:15:04;;;;;;;16.58;3.22;;;;;;;1.69;100.00;99180.88;10359886;28;20046;-62
2022/02/07 21:20:11;;;;;;;10.55;2.60;;;;;;;1.71;100.00;99172.81;10344576;28;20144;-63
2022/02/07 21:25:14;;;;;;;10.25;2.78;;;;;;;1.78;100.00;99177.69;10356632;28;20105;-63
2022/02/07 21:30:19;;;;;;;8.82;2.58;;;;;;;1.70;100.00;99193.22;10359369;28;20041;-63
2022/02/07 21:35:24;;;;;;;12.35;3.28;;;;;;;1.80;100.00;99193.53;10359575;28;20050;-63
2022/02/07 21:40:30;;;;;;;12.55;2.60;;;;;;;1.79;100.00;99190.03;10360104;28;20552;-62
2022/02/07 21:45:42;;;;;;;11.95;2.90;;;;;;;1.80;100.00;99198.84;10357611;28;20100;-63
2022/02/07 21:50:45;;;;;;;10.77;3.00;;;;;;;1.88;100.00;99191.31;10361644;28;20042;-62
2022/02/07 21:55:50;;;;;;;13.38;2.60;;;;;;;1.93;100.00;99199.03;10356985;28;20049;-62
2022/02/07 22:00:56;;;;;;;9.20;2.30;;;;;;;1.99;100.00;99209.31;10358043;28;20116;-62
2022/02/07 22:06:00;;;;;;;11.77;2.83;;;;;;;2.01;100.00;99196.78;10358950;28;20069;-62
2022/02/07 22:11:06;;;;;;;10.55;2.80;;;;;;;2.10;100.00;99206.88;10340820;28;20572;-59
2022/02/07 22:16:13;;;;;;;12.75;2.83;;;;;;;2.21;100.00;99208.06;10356478;28;20534;-63
2022/02/07 22:21:19;;;;;;;13.40;2.40;;;;;;;2.17;100.00;99217.19;10360328;28;20084;-63
2022/02/07 22:26:23;;;;;;;13.05;2.45;;;;;;;2.12;100.00;99226.28;10358958;28;20069;-61
2022/02/07 22:31:33;;;;;;;9.40;2.30;;;;;;;2.17;100.00;99219.84;10360310;28;20038;-63
2022/02/07 22:36:36;;;;;;;10.02;2.50;;;;;;;2.03;100.00;99225.94;10359140;28;20517;-62
2022/02/07 22:41:40;;;;;;;8.52;2.53;;;;;;;2.19;100.00;99233.88;10359992;28;20577;-63
2022/02/07 22:46:44;;;;;;;12.50;2.40;;;;;;;2.14;100.00;99239.47;10359161;28;20046;-60
2022/02/07 22:51:50;;;;;;;8.57;2.10;;;;;;;2.23;100.00;99246.06;10360479;28;20065;-63
2022/02/07 22:56:54;;;;;;;9.73;2.28;;;;;;;2.26;100.00;99253.88;10356148;28;20061;-61
2022/02/07 23:01:59;;;;;;;9.00;2.40;;;;;;;2.10;100.00;99254.72;10356602;28;20049;-63
2022/02/07 23:07:13;;;;;;;6.53;2.20;;;;;;;2.05;100.00;99267.44;10355396;28;20133;-62
2022/02/07 23:12:25;;;;;;;11.77;2.70;;;;;;;1.89;100.00;99272.72;10358127;28;20044;-63
2022/02/07 23:17:50;;;;;;;11.50;2.70;;;;;;;1.94;100.00;99275.16;10359155;28;20049;-62
2022/02/07 23:39:05;;;;;;;12.60;3.08;;;;;;;1.72;100.00;99288.75;10356389;28;20144;-63
2022/02/07 23:44:11;;;;;;;11.10;2.88;;;;;;;1.74;100.00;99290.38;10354807;28;20042;-63
2022/02/07 23:49:28;;;;;;;13.23;2.90;;;;;;;1.75;100.00;99288.59;10365130;28;20490;-62
2022/02/07 23:54:42;;;;;;;7.88;2.58;;;;;;;1.81;100.00;99281.16;10344066;28;20056;-62
2022/02/07 23:59:49;;;;;;;11.65;2.90;;;;;;;1.80;100.00;99281.22;10362522;28;20162;-61
